Time;durP1;ratioP1;P1;durP2;ratioP2;P2;SDS_P1;SDS_P2;PMS_P1;PMS_P2;Temp;Humidity;BMP_temperature;BMP_pressure;BME280_temperature;BME280_humidity;BME280_pressure;Samples;Min_cycle;Max_cycle;Signal;HPM_P1;HPM_P2
2021/12/27 00:00:05;;;;;;;2.53;2.33;;;22.20;56.10;;;;;;5055772;28;20491;-64
2021/12/27 00:02:33;;;;;;;2.57;2.37;;;22.20;56.10;;;;;;5055780;28;20450;-68
2021/12/27 00:05:00;;;;;;;2.83;2.63;;;22.20;56.10;;;;;;5055699;28;20441;-63
2021/12/27 00:07:27;;;;;;;2.50;2.30;;;22.20;56.10;;;;;;5055665;28;20437;-63
2021/12/27 00:09:54;;;;;;;2.73;2.53;;;22.20;56.00;;;;;;5055615;28;20481;-64
2021/12/27 00:12:21;;;;;;;2.33;2.20;;;22.20;56.00;;;;;;5055640;28;20438;-64
2021/12/27 00:14:47;;;;;;;2.83;2.63;;;22.20;56.00;;;;;;5055459;28;20441;-68
2021/12/27 00:17:14;;;;;;;2.00;1.90;;;22.20;56.00;;;;;;5055164;28;20461;-63
2021/12/27 00:19:43;;;;;;;2.30;2.10;;;22.20;56.00;;;;;;5055451;28;20960;-66
2021/12/27 00:22:10;;;;;;;2.60;2.40;;;22.20;56.00;;;;;;5055275;28;20803;-70
2021/12/27 00:24:36;;;;;;;2.63;2.43;;;22.20;56.00;;;;;;5055180;28;20799;-64
2021/12/27 00:27:04;;;;;;;2.90;2.70;;;22.20;55.90;;;;;;5055089;28;20823;-63
2021/12/27 00:29:30;;;;;;;2.00;1.90;;;22.20;56.00;;;;;;5054914;28;20842;-64
2021/12/27 00:31:57;;;;;;;2.47;2.27;;;22.20;55.90;;;;;;5055291;28;20442;-64
2021/12/27 00:34:24;;;;;;;2.87;2.67;;;22.20;55.90;;;;;;5055067;28;20445;-67
2021/12/27 00:36:52;;;;;;;2.50;2.30;;;22.20;55.90;;;;;;5055097;28;20440;-69
2021/12/27 00:39:18;;;;;;;2.63;2.43;;;22.20;55.90;;;;;;5054991;28;20433;-64
2021/12/27 00:41:45;;;;;;;2.20;2.10;;;22.20;56.00;;;;;;5055012;28;20771;-64
2021/12/27 00:44:12;;;;;;;2.23;2.07;;;22.20;55.90;;;;;;5054928;28;20438;-64
2021/12/27 00:46:39;;;;;;;2.70;2.50;;;22.20;55.90;;;;;;5054950;28;20437;-65
2021/12/27 00:49:05;;;;;;;2.43;2.30;;;22.20;55.90;;;;;;5054823;28;20480;-63
2021/12/27 00:51:32;;;;;;;2.30;2.20;;;22.20;55.80;;;;;;5054635;28;20442;-64
2021/12/27 00:54:00;;;;;;;2.47;2.37;;;22.20;55.90;;;;;;5054835;28;20441;-64
2021/12/27 00:56:27;;;;;;;2.27;2.17;;;22.20;55.90;;;;;;5054787;28;20797;-62
2021/12/27 00:58:53;;;;;;;2.13;2.03;;;22.20;55.90;;;;;;5054716;28;20453;-63
2021/12/27 01:01:20;;;;;;;2.00;1.90;;;22.20;55.90;;;;;;5054744;28;20442;-63
2021/12/27 01:03:47;;;;;;;2.60;2.40;;;22.20;55.80;;;;;;5054573;28;20452;-63
2021/12/27 01:06:14;;;;;;;2.13;1.90;;;22.20;55.80;;;;;;5054724;28;20508;-63
2021/12/27 01:08:40;;;;;;;2.20;2.00;;;22.20;55.80;;;;;;5054332;28;20433;-63
2021/12/27 01:11:23;;;;;;;1.90;1.80;;;22.20;55.80;;;;;;5054439;28;20942;-63
2021/12/27 01:14:02;;;;;;;2.73;2.53;;;22.20;55.80;;;;;;5054609;28;20434;-63
2021/12/27 01:16:29;;;;;;;2.63;2.43;;;22.20;55.80;;;;;;5054247;28;20520;-63
2021/12/27 01:18:56;;;;;;;2.13;2.03;;;22.20;55.80;;;;;;5054179;28;20454;-63
2021/12/27 01:21:24;;;;;;;2.40;2.30;;;22.20;55.80;;;;;;5054222;28;20441;-63
2021/12/27 01:23:53;;;;;;;2.20;2.10;;;22.20;55.80;;;;;;5054018;28;20445;-63
2021/12/27 01:26:21;;;;;;;2.13;2.03;;;22.20;55.80;;;;;;5054180;28;20440;-60
2021/12/27 01:28:48;;;;;;;2.30;2.20;;;22.20;55.90;;;;;;5054056;28;20433;-60
2021/12/27 01:31:15;;;;;;;2.33;2.20;;;22.10;55.80;;;;;;5054123;28;20441;-60
2021/12/27 01:33:44;;;;;;;2.20;2.00;;;22.20;55.90;;;;;;5053976;28;20449;-60
2021/12/27 01:36:10;;;;;;;2.30;2.10;;;22.20;55.80;;;;;;5053913;28;20455;-60
2021/12/27 01:38:39;;;;;;;2.37;2.17;;;22.20;55.90;;;;;;5053807;28;20775;-60
2021/12/27 01:41:08;;;;;;;2.23;2.03;;;22.20;55.90;;;;;;5053296;28;20456;-60
2021/12/27 01:43:37;;;;;;;2.10;1.90;;;22.20;55.90;;;;;;5053791;28;20924;-60
2021/12/27 01:46:06;;;;;;;2.00;1.90;;;22.20;55.90;;;;;;5053651;28;20947;-60
2021/12/27 01:48:37;;;;;;;2.70;2.50;;;22.20;55.90;;;;;;5053619;28;20458;-61
2021/12/27 01:51:07;;;;;;;2.60;2.40;;;22.20;55.90;;;;;;5053669;28;20845;-60
2021/12/27 01:53:36;;;;;;;2.30;2.20;;;22.20;56.50;;;;;;5053550;28;20489;-60
2021/12/27 01:56:05;;;;;;;2.30;2.20;;;22.20;55.90;;;;;;5053636;28;20445;-60
2021/12/27 01:58:32;;;;;;;2.17;1.97;;;22.20;55.90;;;;;;5053721;28;20449;-60
2021/12/27 02:01:02;;;;;;;2.63;2.43;;;22.20;55.90;;;;;;5053493;28;20441;-61
2021/12/27 02:03:30;;;;;;;2.30;2.10;;;22.20;55.90;;;;;;5053670;28;20442;-61
2021/12/27 02:06:00;;;;;;;2.60;2.40;;;22.20;55.90;;;;;;5053492;28;20442;-63
2021/12/27 02:08:27;;;;;;;1.97;1.83;;;22.20;55.90;;;;;;5053633;28;20480;-63
2021/12/27 02:10:54;;;;;;;2.20;2.00;;;22.20;55.90;;;;;;5053329;28;20871;-63
2021/12/27 02:13:23;;;;;;;2.47;2.27;;;22.20;55.90;;;;;;5053392;28;20449;-64
2021/12/27 02:15:50;;;;;;;2.20;2.10;;;22.20;55.90;;;;;;5053323;28;20481;-63
2021/12/27 02:18:18;;;;;;;2.63;2.43;;;22.10;55.80;;;;;;5053106;28;20515;-63
2021/12/27 02:20:47;;;;;;;2.30;2.10;;;22.20;55.90;;;;;;5053214;28;20445;-70
2021/12/27 02:23:16;;;;;;;2.13;2.03;;;22.20;55.90;;;;;;5053132;28;20444;-69
2021/12/27 02:25:44;;;;;;;2.50;2.30;;;22.20;55.90;;;;;;5053147;28;20472;-70
2021/12/27 02:28:11;;;;;;;2.20;2.10;;;22.20;55.90;;;;;;5053473;28;20437;-63
2021/12/27 02:30:40;;;;;;;1.97;1.77;;;22.20;55.90;;;;;;5052966;28;20488;-63
2021/12/27 02:33:08;;;;;;;2.30;2.20;;;22.10;55.80;;;;;;5053046;28;20446;-65
2021/12/27 02:35:37;;;;;;;2.40;2.20;;;22.20;55.90;;;;;;5053268;28;20448;-63
2021/12/27 02:38:07;;;;;;;2.30;2.10;;;22.20;56.50;;;;;;5053078;28;20442;-63
2021/12/27 02:40:34;;;;;;;2.70;2.50;;;22.20;55.90;;;;;;5053054;28;21164;-63
2021/12/27 02:43:12;;;;;;;2.40;2.20;;;22.20;55.90;;;;;;5053426;28;20453;-63
2021/12/27 02:45:40;;;;;;;1.90;1.80;;;22.20;55.90;;;;;;5052820;28;20822;-63
2021/12/27 02:48:08;;;;;;;2.27;2.13;;;22.20;55.90;;;;;;5052949;28;20820;-63
2021/12/27 02:50:35;;;;;;;2.70;2.50;;;22.20;55.90;;;;;;5053567;28;20840;-63
2021/12/27 02:53:03;;;;;;;2.00;1.90;;;22.20;55.90;;;;;;5057030;28;20993;-63
2021/12/27 02:55:31;;;;;;;2.33;2.13;;;22.10;55.80;;;;;;5056974;28;20451;-63
2021/12/27 02:57:59;;;;;;;2.47;2.27;;;22.10;55.80;;;;;;5056950;28;20437;-63
2021/12/27 03:00:28;;;;;;;2.50;2.30;;;22.20;55.90;;;;;;5056977;28;20438;-69
2021/12/27 03:02:56;;;;;;;2.20;2.10;;;22.20;55.90;;;;;;5056886;28;20830;-63
2021/12/27 03:05:24;;;;;;;2.53;2.20;;;22.20;56.00;;;;;;5056686;28;20448;-63
2021/12/27 03:07:53;;;;;;;2.00;1.90;;;22.10;55.90;;;;;;5056793;28;20445;-70
2021/12/27 03:10:22;;;;;;;2.43;2.27;;;22.20;56.00;;;;;;5056676;28;20481;-63
2021/12/27 03:12:52;;;;;;;2.70;2.50;;;22.20;56.00;;;;;;5056780;28;20464;-63
2021/12/27 03:15:20;;;;;;;2.00;1.90;;;22.20;56.00;;;;;;5056697;28;20444;-63
2021/12/27 03:17:49;;;;;;;1.77;1.67;;;22.10;56.50;;;;;;5056365;28;20990;-64
2021/12/27 03:20:18;;;;;;;2.50;2.30;;;22.10;55.90;;;;;;5056695;28;20464;-63
2021/12/27 03:22:45;;;;;;;2.23;2.03;;;22.20;56.00;;;;;;5056522;28;20448;-63
2021/12/27 03:25:14;;;;;;;2.37;2.17;;;22.10;55.90;;;;;;5056347;28;20434;-63
2021/12/27 03:27:42;;;;;;;1.97;1.77;;;22.20;56.00;;;;;;5056568;28;20437;-63
2021/12/27 03:30:13;;;;;;;2.20;2.07;;;22.10;55.90;;;;;;5056272;28;20484;-63
2021/12/27 03:32:40;;;;;;;1.90;1.80;;;22.20;56.00;;;;;;5056336;28;20444;-63
2021/12/27 03:35:12;;;;;;;2.53;2.33;;;22.10;55.90;;;;;;5056442;28;20443;-63
2021/12/27 03:37:40;;;;;;;1.80;1.70;;;22.20;56.00;;;;;;5056167;28;20438;-64
2021/12/27 03:40:09;;;;;;;2.07;1.97;;;22.20;56.00;;;;;;5056351;28;20449;-63
2021/12/27 03:42:36;;;;;;;2.10;1.90;;;22.10;55.90;;;;;;5056191;28;20825;-63
2021/12/27 03:45:04;;;;;;;2.20;2.00;;;22.10;55.90;;;;;;5056090;28;20826;-63
2021/12/27 03:47:32;;;;;;;2.30;2.10;;;22.10;56.00;;;;;;5055862;28;20471;-63
2021/12/27 03:49:59;;;;;;;2.03;1.90;;;22.10;56.00;;;;;;5055906;28;20487;-63
2021/12/27 03:52:26;;;;;;;2.20;2.10;;;22.10;56.00;;;;;;5055791;28;20950;-63
2021/12/27 03:54:53;;;;;;;2.23;2.03;;;22.10;56.00;;;;;;5055815;28;20440;-63
2021/12/27 03:57:20;;;;;;;2.00;1.90;;;22.10;56.00;;;;;;5055940;28;20925;-63
2021/12/27 04:00:04;;;;;;;2.40;2.20;;;22.20;56.10;;;;;;5055706;28;20446;-63
2021/12/27 04:02:37;;;;;;;2.07;1.97;;;22.10;56.00;;;;;;5054933;28;20443;-63
2021/12/27 04:05:04;;;;;;;1.87;1.77;;;22.10;56.00;;;;;;5055734;28;20433;-63
2021/12/27 04:07:34;;;;;;;2.23;2.13;;;22.10;56.00;;;;;;5055908;28;20457;-63
2021/12/27 04:10:01;;;;;;;2.20;2.10;;;22.10;56.00;;;;;;5055590;28;20494;-63
2021/12/27 04:12:27;;;;;;;2.73;2.53;;;22.10;56.00;;;;;;5055760;28;20450;-63
2021/12/27 04:14:55;;;;;;;2.20;2.10;;;22.10;56.00;;;;;;5055551;28;20437;-63
2021/12/27 04:17:21;;;;;;;2.30;2.10;;;22.10;56.00;;;;;;5055302;28;20464;-63
2021/12/27 04:19:49;;;;;;;1.67;1.57;;;22.10;56.00;;;;;;5055505;28;20441;-64
2021/12/27 04:22:16;;;;;;;2.07;1.97;;;22.10;56.00;;;;;;5055285;28;20798;-63
2021/12/27 04:24:43;;;;;;;2.07;1.97;;;22.10;56.00;;;;;;5055380;28;20449;-66
2021/12/27 04:27:10;;;;;;;2.20;2.00;;;22.10;56.00;;;;;;5055418;28;20433;-63
2021/12/27 04:29:37;;;;;;;2.07;1.87;;;22.10;56.00;;;;;;5055400;28;20449;-64
2021/12/27 04:32:04;;;;;;;2.10;2.00;;;22.10;56.00;;;;;;5055226;28;20859;-63
2021/12/27 04:34:31;;;;;;;2.10;1.90;;;22.10;56.00;;;;;;5055251;28;20434;-63
2021/12/27 04:36:59;;;;;;;1.80;1.70;;;22.20;56.10;;;;;;5055118;28;20438;-63
2021/12/27 04:39:27;;;;;;;2.20;2.00;;;22.10;56.00;;;;;;5055140;28;20441;-64
2021/12/27 04:41:54;;;;;;;2.03;1.93;;;22.10;56.00;;;;;;5055050;28;20851;-64
2021/12/27 04:44:21;;;;;;;1.70;1.60;;;22.10;56.00;;;;;;5055005;28;20446;-63
2021/12/27 04:46:48;;;;;;;1.90;1.80;;;22.10;56.10;;;;;;5055026;28;20438;-63
2021/12/27 04:49:14;;;;;;;1.67;1.57;;;22.10;56.10;;;;;;5054697;28;20476;-63
2021/12/27 04:51:43;;;;;;;1.70;1.60;;;22.10;56.10;;;;;;5054704;28;20486;-63
2021/12/27 04:54:11;;;;;;;2.07;1.97;;;22.10;56.10;;;;;;5054786;28;20948;-63
2021/12/27 04:56:38;;;;;;;2.10;1.90;;;22.10;56.10;;;;;;5054772;28;20784;-63
2021/12/27 04:59:04;;;;;;;1.97;1.87;;;22.10;56.10;;;;;;5054703;28;20445;-69
2021/12/27 05:01:31;;;;;;;2.13;2.03;;;22.10;56.20;;;;;;5054533;28;20448;-63
2021/12/27 05:03:58;;;;;;;2.63;2.43;;;22.10;56.20;;;;;;5054840;28;20795;-63
2021/12/27 05:06:27;;;;;;;2.10;1.90;;;22.10;56.20;;;;;;5054597;28;20445;-66
2021/12/27 05:08:54;;;;;;;2.10;2.00;;;22.10;56.20;;;;;;5054730;28;20446;-63
2021/12/27 05:11:22;;;;;;;2.20;2.10;;;22.10;56.20;;;;;;5054489;28;20516;-63
2021/12/27 05:13:49;;;;;;;1.80;1.70;;;22.10;56.20;;;;;;5054322;28;20446;-70
2021/12/27 05:16:16;;;;;;;1.80;1.70;;;22.10;56.20;;;;;;5054418;28;20449;-63
2021/12/27 05:18:43;;;;;;;2.20;2.00;;;22.10;56.30;;;;;;5053965;28;20470;-63
2021/12/27 05:21:09;;;;;;;2.30;2.10;;;22.10;56.30;;;;;;5054500;28;20768;-70
2021/12/27 05:23:36;;;;;;;2.20;2.00;;;22.20;56.40;;;;;;5054248;28;20449;-63
2021/12/27 05:26:03;;;;;;;2.37;2.27;;;22.20;56.40;;;;;;5054311;28;20524;-64
2021/12/27 05:28:31;;;;;;;2.07;1.97;;;22.10;56.30;;;;;;5054265;28;20460;-69
2021/12/27 05:30:57;;;;;;;1.80;1.70;;;22.10;56.30;;;;;;5054073;28;20488;-69
2021/12/27 05:33:24;;;;;;;1.80;1.70;;;22.10;56.30;;;;;;5053954;28;20437;-63
2021/12/27 05:35:51;;;;;;;1.97;1.87;;;22.20;56.40;;;;;;5054033;28;20833;-66
2021/12/27 05:38:18;;;;;;;2.03;1.93;;;22.20;56.40;;;;;;5054059;28;20448;-63
2021/12/27 05:40:44;;;;;;;2.23;2.10;;;22.20;56.40;;;;;;5054078;28;20446;-63
2021/12/27 05:43:11;;;;;;;1.80;1.70;;;22.20;56.40;;;;;;5053855;28;20441;-69
2021/12/27 05:45:39;;;;;;;2.53;2.33;;;22.20;56.40;;;;;;5053953;28;20425;-63
2021/12/27 05:48:07;;;;;;;1.70;1.60;;;22.20;56.40;;;;;;5053666;28;20461;-63
2021/12/27 05:50:35;;;;;;;1.73;1.63;;;22.20;56.40;;;;;;5053677;28;20473;-64
2021/12/27 05:53:02;;;;;;;1.80;1.70;;;22.20;56.50;;;;;;5053645;28;20442;-63
2021/12/27 05:55:29;;;;;;;2.13;1.93;;;22.20;56.40;;;;;;5053639;28;20445;-64
2021/12/27 05:57:56;;;;;;;2.03;1.83;;;22.20;56.50;;;;;;5053649;28;20477;-70
2021/12/27 06:00:23;;;;;;;2.10;2.00;;;22.20;56.50;;;;;;5053554;28;20882;-63
2021/12/27 06:02:54;;;;;;;2.07;1.97;;;22.20;56.50;;;;;;5053329;28;20789;-63
2021/12/27 06:05:22;;;;;;;1.90;1.80;;;22.20;56.50;;;;;;5053605;28;20440;-64
2021/12/27 06:07:49;;;;;;;1.90;1.80;;;22.20;56.50;;;;;;5053453;28;20438;-63
2021/12/27 06:10:17;;;;;;;2.20;2.00;;;22.10;56.40;;;;;;5053490;28;20445;-63
2021/12/27 06:12:44;;;;;;;1.80;1.70;;;22.20;56.50;;;;;;5053418;28;20809;-63
2021/12/27 06:15:12;;;;;;;1.60;1.50;;;22.20;56.50;;;;;;5053506;28;20441;-63
2021/12/27 06:17:39;;;;;;;1.87;1.70;;;22.20;56.50;;;;;;5051962;28;20473;-68
2021/12/27 06:20:10;;;;;;;1.77;1.67;;;22.20;56.50;;;;;;5052893;28;20449;-63
2021/12/27 06:22:38;;;;;;;1.80;1.70;;;22.20;56.50;;;;;;5052846;28;20956;-63
2021/12/27 06:25:06;;;;;;;2.47;2.27;;;22.20;56.50;;;;;;5052540;28;20448;-63
2021/12/27 06:27:33;;;;;;;1.80;1.70;;;22.20;57.10;;;;;;5052763;28;20433;-63
2021/12/27 06:30:01;;;;;;;1.90;1.80;;;22.20;56.50;;;;;;5052770;28;20446;-63
2021/12/27 06:32:28;;;;;;;1.80;1.70;;;22.20;56.60;;;;;;5053033;28;20834;-63
2021/12/27 06:34:54;;;;;;;1.90;1.80;;;22.20;56.50;;;;;;5053099;28;20437;-63
2021/12/27 06:37:22;;;;;;;2.27;2.17;;;22.20;56.50;;;;;;5053049;28;20446;-64
2021/12/27 06:39:49;;;;;;;1.67;1.57;;;22.20;56.50;;;;;;5053087;28;20928;-63
2021/12/27 06:42:16;;;;;;;1.60;1.50;;;22.20;56.50;;;;;;5052952;28;20433;-63
2021/12/27 06:44:42;;;;;;;1.80;1.70;;;22.20;56.50;;;;;;5053022;28;20433;-63
2021/12/27 06:47:09;;;;;;;2.07;1.97;;;22.20;56.60;;;;;;5052968;28;20437;-63
2021/12/27 06:49:37;;;;;;;1.87;1.77;;;22.20;56.60;;;;;;5052955;28;20452;-63
2021/12/27 06:52:04;;;;;;;2.10;1.90;;;22.20;56.60;;;;;;5052925;28;20904;-63
2021/12/27 06:54:32;;;;;;;1.73;1.63;;;22.20;56.60;;;;;;5052872;28;20453;-63
2021/12/27 06:57:00;;;;;;;1.90;1.80;;;22.20;56.60;;;;;;5052994;28;20471;-63
2021/12/27 06:59:27;;;;;;;2.03;1.90;;;22.20;56.60;;;;;;5053027;28;20450;-63
2021/12/27 07:01:54;;;;;;;1.70;1.60;;;22.20;56.60;;;;;;5054633;28;20940;-67
2021/12/27 07:04:20;;;;;;;1.80;1.70;;;22.20;56.70;;;;;;5053760;28;20457;-68
2021/12/27 07:06:47;;;;;;;1.70;1.47;;;22.20;56.80;;;;;;5062338;28;20440;-66
2021/12/27 07:09:14;;;;;;;1.90;1.80;;;22.20;56.90;;;;;;5060583;28;20437;-67
2021/12/27 07:11:42;;;;;;;1.70;1.60;;;22.20;57.00;;;;;;5055803;28;20492;-71
2021/12/27 07:14:09;;;;;;;5.30;2.00;;;22.20;58.10;;;;;;5051854;28;20456;-71
2021/12/27 07:16:36;;;;;;;2.80;1.67;;;22.10;58.00;;;;;;5051627;28;20441;-70
2021/12/27 07:19:02;;;;;;;3.97;2.10;;;21.90;58.20;;;;;;5055894;28;20449;-69
2021/12/27 07:21:29;;;;;;;1.93;1.83;;;21.80;58.40;;;;;;5065214;28;20804;-68
2021/12/27 07:23:56;;;;;;;1.90;1.80;;;21.70;58.60;;;;;;5051679;28;20437;-71
2021/12/27 07:26:23;;;;;;;1.70;1.60;;;21.70;58.70;;;;;;5051798;28;20770;-69
2021/12/27 07:28:51;;;;;;;2.33;2.07;;;21.60;58.70;;;;;;5058832;28;20460;-66
2021/12/27 07:31:17;;;;;;;3.00;2.20;;;21.60;58.80;;;;;;5065166;28;20484;-65
2021/12/27 07:33:44;;;;;;;5.30;2.10;;;21.60;58.90;;;;;;5071792;28;20924;-67
2021/12/27 07:36:11;;;;;;;3.03;1.50;;;21.60;58.90;;;;;;5065218;28;20442;-67
2021/12/27 07:38:40;;;;;;;1.57;1.47;;;21.70;58.70;;;;;;5063921;28;20468;-66
2021/12/27 07:41:08;;;;;;;2.37;1.80;;;21.70;58.50;;;;;;5060351;28;20441;-70
2021/12/27 07:43:35;;;;;;;1.63;1.53;;;21.80;58.50;;;;;;5061676;28;20448;-66
2021/12/27 07:46:03;;;;;;;1.80;1.70;;;21.90;58.40;;;;;;5055152;28;20967;-67
2021/12/27 07:48:30;;;;;;;3.33;1.37;;;21.90;58.40;;;;;;5055227;28;20825;-65
2021/12/27 07:50:56;;;;;;;2.73;1.50;;;22.00;58.40;;;;;;5055314;28;20787;-66
2021/12/27 07:53:23;;;;;;;2.23;1.50;;;22.00;58.30;;;;;;5054965;28;20441;-65
2021/12/27 07:55:50;;;;;;;1.43;1.33;;;22.10;58.30;;;;;;5060940;28;20461;-66
2021/12/27 07:58:17;;;;;;;3.30;1.30;;;22.10;58.30;;;;;;5070017;28;20452;-67
2021/12/27 08:00:45;;;;;;;1.30;1.10;;;22.10;58.30;;;;;;5064891;28;20465;-66
2021/12/27 08:03:13;;;;;;;1.53;1.43;;;22.20;58.40;;;;;;5061162;28;20449;-69
2021/12/27 08:05:40;;;;;;;1.27;1.17;;;22.20;58.40;;;;;;5054481;28;20441;-64
2021/12/27 08:08:06;;;;;;;1.27;1.17;;;22.20;58.40;;;;;;5054839;28;20942;-65
2021/12/27 08:10:33;;;;;;;1.60;1.10;;;22.20;58.40;;;;;;5054677;28;20442;-65
2021/12/27 08:13:01;;;;;;;1.43;1.03;;;22.20;58.40;;;;;;5057442;28;20495;-67
2021/12/27 08:15:28;;;;;;;1.20;1.10;;;22.20;58.40;;;;;;5074618;28;20866;-66
2021/12/27 08:17:55;;;;;;;2.07;1.40;;;22.20;58.40;;;;;;5074429;28;20483;-65
2021/12/27 08:20:23;;;;;;;2.03;1.10;;;22.30;58.50;;;;;;5074786;28;20445;-62
2021/12/27 08:22:49;;;;;;;1.97;1.20;;;22.30;58.50;;;;;;5063259;28;20449;-66
2021/12/27 08:25:16;;;;;;;1.77;1.00;;;22.30;58.50;;;;;;5054764;28;20448;-63
2021/12/27 08:27:45;;;;;;;1.67;1.07;;;22.30;58.50;;;;;;5064116;28;20947;-65
2021/12/27 08:30:13;;;;;;;2.07;1.33;;;22.30;58.60;;;;;;5074438;28;20478;-65
2021/12/27 08:32:45;;;;;;;2.60;1.17;;;22.30;58.60;;;;;;5070658;28;20485;-68
2021/12/27 08:35:12;;;;;;;2.57;1.23;;;22.40;58.70;;;;;;5053631;28;20521;-66
2021/12/27 08:37:41;;;;;;;1.77;1.20;;;22.40;58.70;;;;;;5053469;28;20437;-65
2021/12/27 08:40:09;;;;;;;5.00;1.10;;;22.40;58.70;;;;;;5053953;28;20450;-67
2021/12/27 08:42:36;;;;;;;1.50;1.30;;;22.40;58.70;;;;;;5061616;28;20460;-66
2021/12/27 08:45:04;;;;;;;2.90;1.23;;;22.40;58.70;;;;;;5074266;28;20452;-62
2021/12/27 08:47:31;;;;;;;1.73;1.13;;;22.30;58.60;;;;;;5073968;28;20476;-62
2021/12/27 08:49:59;;;;;;;1.53;1.13;;;22.40;58.70;;;;;;5073853;28;20451;-63
2021/12/27 08:52:26;;;;;;;1.20;1.10;;;22.40;58.70;;;;;;5073855;28;20484;-60
2021/12/27 08:54:54;;;;;;;4.80;1.13;;;22.40;58.60;;;;;;5073968;28;20441;-59
2021/12/27 08:57:22;;;;;;;1.43;1.20;;;22.40;58.60;;;;;;5073934;28;20445;-59
2021/12/27 08:59:48;;;;;;;1.40;1.30;;;22.40;58.50;;;;;;5073929;28;20435;-60
2021/12/27 09:02:15;;;;;;;1.97;1.13;;;22.40;58.50;;;;;;5073819;28;20440;-59
2021/12/27 09:04:43;;;;;;;1.97;1.37;;;22.40;58.40;;;;;;5073611;28;20440;-60
2021/12/27 09:07:12;;;;;;;2.17;1.20;;;22.40;58.40;;;;;;5073777;28;20448;-60
2021/12/27 09:09:39;;;;;;;1.57;1.30;;;22.50;58.50;;;;;;5073695;28;20452;-60
2021/12/27 09:12:09;;;;;;;2.03;1.10;;;22.40;58.40;;;;;;5073752;28;20486;-61
2021/12/27 09:14:36;;;;;;;2.23;1.13;;;22.50;58.50;;;;;;5073641;28;20445;-60
2021/12/27 09:17:03;;;;;;;1.77;1.30;;;22.50;58.40;;;;;;5073553;28;20468;-59
2021/12/27 09:19:29;;;;;;;1.20;1.10;;;22.40;58.30;;;;;;5073607;28;20467;-61
2021/12/27 09:21:56;;;;;;;1.80;1.17;;;22.40;58.40;;;;;;5073639;28;20446;-60
2021/12/27 09:24:23;;;;;;;1.30;1.10;;;22.40;58.40;;;;;;5073666;28;20448;-61
2021/12/27 09:26:50;;;;;;;1.30;1.00;;;22.40;58.40;;;;;;5073453;28;20440;-59
2021/12/27 09:29:18;;;;;;;1.50;1.13;;;22.40;58.40;;;;;;5073363;28;20451;-60
2021/12/27 09:31:45;;;;;;;1.30;1.00;;;22.40;58.40;;;;;;5073275;28;20558;-59
2021/12/27 09:34:11;;;;;;;1.80;1.20;;;22.40;58.40;;;;;;5073244;28;20453;-65
2021/12/27 09:36:38;;;;;;;3.97;1.20;;;22.40;58.40;;;;;;5070298;28;20456;-65
2021/12/27 09:39:05;;;;;;;1.17;1.00;;;22.40;59.10;;;;;;5073272;28;20946;-64
2021/12/27 09:41:32;;;;;;;2.60;1.20;;;22.40;58.50;;;;;;5072987;28;20433;-66
2021/12/27 09:43:59;;;;;;;1.10;1.00;;;22.40;58.60;;;;;;5069510;28;20460;-64
2021/12/27 09:46:27;;;;;;;1.83;1.13;;;22.50;58.60;;;;;;5063423;28;20449;-67
2021/12/27 09:48:56;;;;;;;1.33;1.20;;;22.50;58.70;;;;;;5063278;28;20453;-69
2021/12/27 09:51:26;;;;;;;1.23;1.13;;;22.50;58.70;;;;;;5069389;28;20467;-70
2021/12/27 09:53:53;;;;;;;1.20;1.03;;;22.50;58.70;;;;;;5072879;28;20459;-67
2021/12/27 09:56:19;;;;;;;10.80;4.27;;;22.50;58.80;;;;;;5072576;28;20437;-59
2021/12/27 09:58:46;;;;;;;3.43;2.17;;;;;;;;;;5071776;28;20444;-63
2021/12/27 10:01:14;;;;;;;6.90;2.37;;;;;;;;;;5071876;28;20445;-64
2021/12/27 10:03:49;;;;;;;4.83;2.73;;;;;;;;;;5072440;28;20460;-63
2021/12/27 10:06:16;;;;;;;7.80;2.50;;;;;;;;;;5071138;28;20444;-66
2021/12/27 10:08:47;;;;;;;2.10;1.90;;;;;;;;;;5063495;28;20457;-67
2021/12/27 10:11:21;;;;;;;2.23;1.83;;;;;;;;;;5061371;28;20448;-66
2021/12/27 10:13:59;;;;;;;2.97;1.80;;;;;;;;;;5072590;28;20483;-67
2021/12/27 10:16:26;;;;;;;7.77;2.37;;;;;;;;;;5068528;28;20895;-68
2021/12/27 10:18:58;;;;;;;2.33;2.13;;;;;;;;;;5053654;28;20484;-64
2021/12/27 10:21:27;;;;;;;9.10;1.87;;;;;;;;;;5067190;28;20445;-67
2021/12/27 10:24:05;;;;;;;2.00;1.90;;;;;;;;;;5053148;28;20525;-61
2021/12/27 10:26:32;;;;;;;3.40;2.40;;;;;;;;;;5052810;28;20472;-61
2021/12/27 10:29:07;;;;;;;2.33;2.13;;;;;;;;;;5066036;28;20452;-64
2021/12/27 10:31:50;;;;;;;2.23;2.03;;;;;;;;;;5068493;28;20453;-64
2021/12/27 10:34:19;;;;;;;3.93;2.23;;;;;;;;;;5063588;28;20457;-63
2021/12/27 10:36:58;;;;;;;3.10;2.23;;;;;;;;;;5056035;28;20512;-64
2021/12/27 10:39:25;;;;;;;2.47;2.10;;;;;;;;;;5055460;28;20461;-65
2021/12/27 10:41:52;;;;;;;1.90;1.63;;;;;;;;;;5056561;28;20548;-64
2021/12/27 10:44:20;;;;;;;2.90;1.73;;;;;;;;;;5054872;28;20861;-63
2021/12/27 10:46:47;;;;;;;3.67;1.53;;;;;;;;;;5054248;28;20850;-63
2021/12/27 10:49:15;;;;;;;1.97;1.83;;;;;;;;;;5066625;28;20444;-64
2021/12/27 10:51:48;;;;;;;2.60;1.63;;;;;;;;;;5061023;28;20940;-64
2021/12/27 10:54:16;;;;;;;2.70;1.40;;;;;;;;;;5059935;28;20449;-64
2021/12/27 10:56:51;;;;;;;2.53;2.00;;;;;;;;;;5068134;28;20924;-63
2021/12/27 10:59:19;;;;;;;1.77;1.37;;;;;;;;;;5075688;28;20520;-64
2021/12/27 11:01:48;;;;;;;1.83;1.60;;;;;;;;;;5059753;28;20489;-63
2021/12/27 11:04:17;;;;;;;1.63;1.47;;;;;;;;;;5070276;28;20461;-66
2021/12/27 11:06:46;;;;;;;1.80;1.50;;;;;;;;;;5072028;28;20476;-64
2021/12/27 11:09:14;;;;;;;3.40;1.50;;;;;;;;;;5069831;28;20955;-63
2021/12/27 11:11:42;;;;;;;1.70;1.40;;;;;;;;;;5056554;28;20520;-63
2021/12/27 11:17:38;;;;;;;1.67;1.57;;;;;;;;;;5068219;28;20518;-65
2021/12/27 11:20:08;;;;;;;1.97;1.37;;;;;;;;;;5075634;28;20436;-67
2021/12/27 11:22:37;;;;;;;1.83;1.60;;;;;;;;;;5075441;28;20487;-67
2021/12/27 11:25:05;;;;;;;1.70;1.57;;;;;;;;;;5075474;28;20436;-68
2021/12/27 11:27:34;;;;;;;3.50;1.60;;;;;;;;;;5072669;28;20451;-67
2021/12/27 11:30:10;;;;;;;1.60;1.30;;;;;;;;;;5054651;28;20448;-68
2021/12/27 11:32:37;;;;;;;1.20;1.10;;;;;;;;;;5054547;28;20991;-68
2021/12/27 11:35:09;;;;;;;9.97;2.80;;;;;;;;;;5070919;28;20468;-68
2021/12/27 11:37:38;;;;;;;1.70;1.40;;;;;;;;;;5055542;28;20460;-69
2021/12/27 11:40:06;;;;;;;1.60;1.10;;;;;;;;;;5070565;28;20464;-68
2021/12/27 11:42:52;;;;;;;1.53;1.30;;;;;;;;;;5072235;28;20451;-68
2021/12/27 11:45:34;;;;;;;1.40;1.30;;;;;;;;;;5067235;28;20449;-69
2021/12/27 11:48:07;;;;;;;1.40;1.30;;;;;;;;;;5055598;28;20467;-67
2021/12/27 11:50:34;;;;;;;1.83;1.20;;;;;;;;;;5055602;28;20442;-68
2021/12/27 11:53:07;;;;;;;1.30;1.20;;;;;;;;;;5063057;28;20539;-62
2021/12/27 11:55:38;;;;;;;7.70;2.13;;;;;;;;;;5059023;28;20437;-68
2021/12/27 11:58:05;;;;;;;3.87;2.10;;;;;;;;;;5055462;28;20468;-67
2021/12/27 12:00:34;;;;;;;5.07;2.00;;;;;;;;;;5054897;28;20441;-68
2021/12/27 12:03:10;;;;;;;1.90;1.70;;;;;;;;;;5066065;28;20463;-66
2021/12/27 12:05:39;;;;;;;6.23;1.80;;;;;;;;;;5074866;28;20845;-64
2021/12/27 12:08:08;;;;;;;7.10;1.60;;;;;;;;;;5074912;28;20464;-64
2021/12/27 12:10:37;;;;;;;2.20;1.67;;;;;;;;;;5074912;28;20448;-65
2021/12/27 12:13:21;;;;;;;1.97;1.77;;;;;;;;;;5064689;28;20484;-65
2021/12/27 12:15:59;;;;;;;2.30;1.60;;;;;;;;;;5055183;28;20513;-68
2021/12/27 12:18:27;;;;;;;1.70;1.60;;;;;;;;;;5054738;28;20483;-61
2021/12/27 12:20:54;;;;;;;2.90;1.70;;;;;;;;;;5054977;28;20918;-60
2021/12/27 12:23:23;;;;;;;3.57;3.27;;;;;;;;;;5058969;28;20429;-65
2021/12/27 12:25:58;;;;;;;5.90;3.10;;;;;;;;;;5064575;28;20507;-67
2021/12/27 12:28:25;;;;;;;7.27;3.73;;;;;;;;;;5055086;28;20437;-73
2021/12/27 12:30:54;;;;;;;4.60;3.57;;;;;;;;;;5054912;28;20446;-66
2021/12/27 12:33:22;;;;;;;3.00;2.70;;;;;;;;;;5065405;28;21063;-67
2021/12/27 12:35:50;;;;;;;3.30;2.80;;;;;;;;;;5071667;28;20867;-68
2021/12/27 12:38:19;;;;;;;3.90;3.20;;;;;;;;;;5074885;28;20455;-72
2021/12/27 12:40:57;;;;;;;2.33;2.13;;;;;;;;;;5071758;28;20570;-70
2021/12/27 12:43:39;;;;;;;3.17;2.87;;;;;;;;;;5054603;28;20450;-74
2021/12/27 12:46:25;;;;;;;6.23;2.83;;;;;;;;;;5054996;28;20451;-71
2021/12/27 12:49:00;;;;;;;6.63;3.60;;;;;;;;;;5064407;28;21014;-72
2021/12/27 12:51:35;;;;;;;6.60;3.90;;;;;;;;;;5064111;28;20441;-72
2021/12/27 12:54:02;;;;;;;5.93;4.10;;;;;;;;;;5060179;28;20489;-72
2021/12/27 12:56:33;;;;;;;5.67;4.43;;;22.30;61.90;;;;;;5064742;28;20466;-65
2021/12/27 12:59:00;;;;;;;4.73;3.57;;;22.30;62.70;;;;;;5064285;28;20436;-67
2021/12/27 13:01:27;;;;;;;7.90;4.70;;;22.20;62.70;;;;;;5065780;28;20520;-73
2021/12/27 13:03:59;;;;;;;4.50;3.60;;;22.20;62.80;;;;;;5056397;28;20513;-67
2021/12/27 13:06:26;;;;;;;6.70;3.33;;;22.20;62.80;;;;;;5058016;28;20528;-69
2021/12/27 13:08:55;;;;;;;5.80;3.57;;;22.20;62.60;;;;;;5053529;28;20464;-66
2021/12/27 13:11:21;;;;;;;4.03;3.63;;;22.20;62.10;;;;;;5068603;28;20780;-68
2021/12/27 13:13:58;;;;;;;6.30;4.17;;;22.30;61.40;;;;;;5055677;28;20812;-67
2021/12/27 13:16:28;;;;;;;3.27;2.93;;;22.40;61.60;;;;;;5065565;28;20440;-68
2021/12/27 13:18:54;;;;;;;5.50;3.37;;;22.40;61.10;;;;;;5062189;28;20465;-66